sensor_id;sensor_type;location;lat;lon;timestamp;pressure;altitude;pressure_sealevel;temperature
71205;BMP180;58935;54.498;18.544;2023-07-31T00:02:15;99857.20;;;15.60
71205;BMP180;58935;54.498;18.544;2023-07-31T00:04:40;99847.00;;;15.58
71205;BMP180;58935;54.498;18.544;2023-07-31T00:07:05;99843.20;;;15.58
71205;BMP180;58935;54.498;18.544;2023-07-31T00:09:33;99839.20;;;15.50
71205;BMP180;58935;54.498;18.544;2023-07-31T00:11:59;99832.20;;;15.50
71205;BMP180;58935;54.498;18.544;2023-07-31T00:14:24;99830.00;;;15.50
71205;BMP180;58935;54.498;18.544;2023-07-31T00:16:50;99826.60;;;15.50
71205;BMP180;58935;54.498;18.544;2023-07-31T00:19:16;99822.20;;;15.50
71205;BMP180;58935;54.498;18.544;2023-07-31T00:21:41;99812.60;;;15.46
71205;BMP180;58935;54.498;18.544;2023-07-31T00:24:06;99808.80;;;15.40
71205;BMP180;58935;54.498;18.544;2023-07-31T00:26:32;99798.60;;;15.40
71205;BMP180;58935;54.498;18.544;2023-07-31T00:28:57;99784.40;;;15.40
71205;BMP180;58935;54.498;18.544;2023-07-31T00:31:22;99787.60;;;15.40
71205;BMP180;58935;54.498;18.544;2023-07-31T00:33:48;99786.40;;;15.40
71205;BMP180;58935;54.498;18.544;2023-07-31T00:36:13;99784.80;;;15.38
71205;BMP180;58935;54.498;18.544;2023-07-31T00:38:39;99792.40;;;15.36
71205;BMP180;58935;54.498;18.544;2023-07-31T00:41:04;99788.40;;;15.34
71205;BMP180;58935;54.498;18.544;2023-07-31T00:43:30;99794.00;;;15.30
71205;BMP180;58935;54.498;18.544;2023-07-31T00:45:55;99794.20;;;15.30
71205;BMP180;58935;54.498;18.544;2023-07-31T00:48:21;99785.80;;;15.30
71205;BMP180;58935;54.498;18.544;2023-07-31T00:50:47;99781.40;;;15.30
71205;BMP180;58935;54.498;18.544;2023-07-31T00:53:13;99777.60;;;15.30
71205;BMP180;58935;54.498;18.544;2023-07-31T00:55:39;99775.60;;;15.30
71205;BMP180;58935;54.498;18.544;2023-07-31T00:58:05;99774.00;;;15.30
71205;BMP180;58935;54.498;18.544;2023-07-31T01:00:30;99775.00;;;15.26
71205;BMP180;58935;54.498;18.544;2023-07-31T01:02:56;99772.00;;;15.20
71205;BMP180;58935;54.498;18.544;2023-07-31T01:05:42;99774.60;;;15.20
71205;BMP180;58935;54.498;18.544;2023-07-31T01:08:33;99771.60;;;15.20
71205;BMP180;58935;54.498;18.544;2023-07-31T01:11:16;99770.60;;;15.18
71205;BMP180;58935;54.498;18.544;2023-07-31T01:13:44;99764.80;;;15.10
71205;BMP180;58935;54.498;18.544;2023-07-31T01:16:11;99768.60;;;15.10
71205;BMP180;58935;54.498;18.544;2023-07-31T01:18:36;99769.80;;;15.10
71205;BMP180;58935;54.498;18.544;2023-07-31T01:21:21;99769.60;;;15.10
71205;BMP180;58935;54.498;18.544;2023-07-31T01:24:19;99758.20;;;15.00
71205;BMP180;58935;54.498;18.544;2023-07-31T01:26:56;99763.60;;;15.00
71205;BMP180;58935;54.498;18.544;2023-07-31T01:29:44;99770.80;;;14.90
71205;BMP180;58935;54.498;18.544;2023-07-31T01:32:12;99769.80;;;14.90
71205;BMP180;58935;54.498;18.544;2023-07-31T01:34:40;99781.80;;;14.90
71205;BMP180;58935;54.498;18.544;2023-07-31T01:37:06;99781.80;;;14.80
71205;BMP180;58935;54.498;18.544;2023-07-31T01:39:31;99786.40;;;14.80
71205;BMP180;58935;54.498;18.544;2023-07-31T01:41:57;99777.60;;;14.80
71205;BMP180;58935;54.498;18.544;2023-07-31T01:44:22;99782.60;;;14.74
71205;BMP180;58935;54.498;18.544;2023-07-31T01:46:48;99777.60;;;14.70
71205;BMP180;58935;54.498;18.544;2023-07-31T01:49:13;99776.60;;;14.70
71205;BMP180;58935;54.498;18.544;2023-07-31T01:51:38;99776.00;;;14.70
71205;BMP180;58935;54.498;18.544;2023-07-31T01:54:04;99774.20;;;14.70
71205;BMP180;58935;54.498;18.544;2023-07-31T01:56:29;99777.20;;;14.70
71205;BMP180;58935;54.498;18.544;2023-07-31T01:58:54;99770.80;;;14.70
71205;BMP180;58935;54.498;18.544;2023-07-31T02:01:20;99776.00;;;14.70
71205;BMP180;58935;54.498;18.544;2023-07-31T02:03:45;99776.80;;;14.70
71205;BMP180;58935;54.498;18.544;2023-07-31T02:06:11;99772.00;;;14.70
71205;BMP180;58935;54.498;18.544;2023-07-31T02:08:36;99773.80;;;14.70
71205;BMP180;58935;54.498;18.544;2023-07-31T02:11:02;99773.00;;;14.66
71205;BMP180;58935;54.498;18.544;2023-07-31T02:13:27;99777.00;;;14.60
71205;BMP180;58935;54.498;18.544;2023-07-31T02:19:35;99773.80;;;14.58
71205;BMP180;58935;54.498;18.544;2023-07-31T02:22:00;99771.80;;;14.50
71205;BMP180;58935;54.498;18.544;2023-07-31T02:24:25;99778.60;;;14.50
71205;BMP180;58935;54.498;18.544;2023-07-31T02:26:51;99772.40;;;14.50
71205;BMP180;58935;54.498;18.544;2023-07-31T02:29:16;99771.20;;;14.40
71205;BMP180;58935;54.498;18.544;2023-07-31T02:31:41;99771.20;;;14.40
71205;BMP180;58935;54.498;18.544;2023-07-31T02:34:07;99766.60;;;14.38
71205;BMP180;58935;54.498;18.544;2023-07-31T02:36:32;99768.60;;;14.30
71205;BMP180;58935;54.498;18.544;2023-07-31T02:38:57;99771.20;;;14.30
71205;BMP180;58935;54.498;18.544;2023-07-31T02:41:23;99776.60;;;14.30
71205;BMP180;58935;54.498;18.544;2023-07-31T02:43:48;99779.40;;;14.20
71205;BMP180;58935;54.498;18.544;2023-07-31T02:46:13;99779.40;;;14.20
71205;BMP180;58935;54.498;18.544;2023-07-31T02:48:39;99778.20;;;14.20
71205;BMP180;58935;54.498;18.544;2023-07-31T02:51:04;99774.20;;;14.20
71205;BMP180;58935;54.498;18.544;2023-07-31T02:53:29;99777.20;;;14.18
71205;BMP180;58935;54.498;18.544;2023-07-31T02:55:55;99777.20;;;14.10
71205;BMP180;58935;54.498;18.544;2023-07-31T02:58:20;99772.80;;;14.10
71205;BMP180;58935;54.498;18.544;2023-07-31T03:00:45;99777.20;;;14.10
71205;BMP180;58935;54.498;18.544;2023-07-31T03:03:11;99775.40;;;14.10
71205;BMP180;58935;54.498;18.544;2023-07-31T03:05:37;99776.40;;;14.10
71205;BMP180;58935;54.498;18.544;2023-07-31T03:08:03;99776.60;;;14.10
71205;BMP180;58935;54.498;18.544;2023-07-31T03:10:29;99774.40;;;14.10
71205;BMP180;58935;54.498;18.544;2023-07-31T03:12:54;99778.00;;;14.10
71205;BMP180;58935;54.498;18.544;2023-07-31T03:15:20;99778.20;;;14.06
71205;BMP180;58935;54.498;18.544;2023-07-31T03:17:45;99776.80;;;14.06
71205;BMP180;58935;54.498;18.544;2023-07-31T03:20:11;99775.00;;;14.00
71205;BMP180;58935;54.498;18.544;2023-07-31T03:22:36;99775.80;;;14.02
71205;BMP180;58935;54.498;18.544;2023-07-31T03:25:04;99776.80;;;14.02
71205;BMP180;58935;54.498;18.544;2023-07-31T03:27:29;99772.80;;;14.00
71205;BMP180;58935;54.498;18.544;2023-07-31T03:29:54;99778.40;;;14.00
71205;BMP180;58935;54.498;18.544;2023-07-31T03:32:20;99784.20;;;14.00
71205;BMP180;58935;54.498;18.544;2023-07-31T03:34:46;99786.00;;;14.00
71205;BMP180;58935;54.498;18.544;2023-07-31T03:37:11;99788.00;;;14.00
71205;BMP180;58935;54.498;18.544;2023-07-31T03:39:36;99786.60;;;14.00
71205;BMP180;58935;54.498;18.544;2023-07-31T03:42:02;99790.80;;;14.00
71205;BMP180;58935;54.498;18.544;2023-07-31T03:44:27;99793.20;;;14.08
71205;BMP180;58935;54.498;18.544;2023-07-31T03:46:53;99790.00;;;14.08
71205;BMP180;58935;54.498;18.544;2023-07-31T03:49:18;99790.80;;;14.10
71205;BMP180;58935;54.498;18.544;2023-07-31T03:51:44;99789.20;;;14.10
71205;BMP180;58935;54.498;18.544;2023-07-31T03:54:09;99785.60;;;14.10
71205;BMP180;58935;54.498;18.544;2023-07-31T03:56:35;99788.00;;;14.12
71205;BMP180;58935;54.498;18.544;2023-07-31T03:59:01;99800.00;;;14.20
71205;BMP180;58935;54.498;18.544;2023-07-31T04:01:26;99807.00;;;14.20
71205;BMP180;58935;54.498;18.544;2023-07-31T04:03:52;99804.80;;;14.20
71205;BMP180;58935;54.498;18.544;2023-07-31T04:06:17;99811.60;;;14.20
71205;BMP180;58935;54.498;18.544;2023-07-31T04:08:44;99801.40;;;14.30
71205;BMP180;58935;54.498;18.544;2023-07-31T04:11:11;99807.40;;;14.30
71205;BMP180;58935;54.498;18.544;2023-07-31T04:13:38;99799.20;;;14.30
71205;BMP180;58935;54.498;18.544;2023-07-31T04:16:04;99806.40;;;14.30
71205;BMP180;58935;54.498;18.544;2023-07-31T04:18:29;99798.20;;;14.40
71205;BMP180;58935;54.498;18.544;2023-07-31T04:20:57;99797.00;;;14.40
71205;BMP180;58935;54.498;18.544;2023-07-31T04:23:24;99797.00;;;14.42
71205;BMP180;58935;54.498;18.544;2023-07-31T04:25:50;99791.20;;;14.50
71205;BMP180;58935;54.498;18.544;2023-07-31T04:28:16;99797.00;;;14.50
71205;BMP180;58935;54.498;18.544;2023-07-31T04:30:41;99788.00;;;14.50
71205;BMP180;58935;54.498;18.544;2023-07-31T04:33:06;99795.60;;;14.50
71205;BMP180;58935;54.498;18.544;2023-07-31T04:35:32;99795.20;;;14.60
71205;BMP180;58935;54.498;18.544;2023-07-31T04:37:57;99791.40;;;14.60
71205;BMP180;58935;54.498;18.544;2023-07-31T04:40:22;99790.80;;;14.70
71205;BMP180;58935;54.498;18.544;2023-07-31T04:42:48;99795.20;;;14.70
71205;BMP180;58935;54.498;18.544;2023-07-31T04:45:14;99788.80;;;14.78
71205;BMP180;58935;54.498;18.544;2023-07-31T04:47:40;99796.40;;;14.80
71205;BMP180;58935;54.498;18.544;2023-07-31T04:50:06;99794.80;;;14.80
71205;BMP180;58935;54.498;18.544;2023-07-31T04:52:31;99793.20;;;14.84
71205;BMP180;58935;54.498;18.544;2023-07-31T04:54:57;99787.00;;;14.90
71205;BMP180;58935;54.498;18.544;2023-07-31T04:57:22;99786.00;;;14.90
71205;BMP180;58935;54.498;18.544;2023-07-31T04:59:47;99790.40;;;14.90
71205;BMP180;58935;54.498;18.544;2023-07-31T05:02:13;99786.80;;;14.90
71205;BMP180;58935;54.498;18.544;2023-07-31T05:04:39;99792.80;;;14.90
71205;BMP180;58935;54.498;18.544;2023-07-31T05:07:04;99790.60;;;14.90
71205;BMP180;58935;54.498;18.544;2023-07-31T05:09:30;99790.40;;;14.90
71205;BMP180;58935;54.498;18.544;2023-07-31T05:11:55;99793.60;;;14.90
71205;BMP180;58935;54.498;18.544;2023-07-31T05:14:20;99789.20;;;14.90
71205;BMP180;58935;54.498;18.544;2023-07-31T05:16:46;99797.00;;;14.90
71205;BMP180;58935;54.498;18.544;2023-07-31T05:19:11;99801.00;;;14.90
71205;BMP180;58935;54.498;18.544;2023-07-31T05:21:37;99803.20;;;14.90
71205;BMP180;58935;54.498;18.544;2023-07-31T05:24:02;99799.20;;;14.90
71205;BMP180;58935;54.498;18.544;2023-07-31T05:26:28;99811.20;;;14.90
71205;BMP180;58935;54.498;18.544;2023-07-31T05:28:53;99808.00;;;14.92
71205;BMP180;58935;54.498;18.544;2023-07-31T05:31:19;99805.80;;;15.00
71205;BMP180;58935;54.498;18.544;2023-07-31T05:33:46;99802.60;;;15.08
71205;BMP180;58935;54.498;18.544;2023-07-31T05:36:11;99802.00;;;15.10
71205;BMP180;58935;54.498;18.544;2023-07-31T05:38:37;99802.80;;;15.20
71205;BMP180;58935;54.498;18.544;2023-07-31T05:41:02;99798.80;;;15.28
71205;BMP180;58935;54.498;18.544;2023-07-31T05:43:27;99805.40;;;15.30
71205;BMP180;58935;54.498;18.544;2023-07-31T05:45:53;99804.20;;;15.40
71205;BMP180;58935;54.498;18.544;2023-07-31T05:48:18;99811.20;;;15.50
71205;BMP180;58935;54.498;18.544;2023-07-31T05:50:44;99802.80;;;15.56
71205;BMP180;58935;54.498;18.544;2023-07-31T05:53:09;99792.60;;;15.60
71205;BMP180;58935;54.498;18.544;2023-07-31T05:55:35;99800.60;;;15.66
71205;BMP180;58935;54.498;18.544;2023-07-31T05:58:01;99800.80;;;15.70
71205;BMP180;58935;54.498;18.544;2023-07-31T06:00:27;99799.20;;;15.80
71205;BMP180;58935;54.498;18.544;2023-07-31T06:02:53;99809.20;;;15.80
71205;BMP180;58935;54.498;18.544;2023-07-31T06:05:19;99803.80;;;15.90
71205;BMP180;58935;54.498;18.544;2023-07-31T06:07:44;99800.00;;;15.90
71205;BMP180;58935;54.498;18.544;2023-07-31T06:10:09;99794.40;;;16.00
71205;BMP180;58935;54.498;18.544;2023-07-31T06:12:36;99792.60;;;16.00
71205;BMP180;58935;54.498;18.544;2023-07-31T06:15:03;99797.00;;;16.10
71205;BMP180;58935;54.498;18.544;2023-07-31T06:17:29;99796.00;;;16.14
71205;BMP180;58935;54.498;18.544;2023-07-31T06:19:56;99795.40;;;16.20
71205;BMP180;58935;54.498;18.544;2023-07-31T06:22:22;99800.60;;;16.20
71205;BMP180;58935;54.498;18.544;2023-07-31T06:24:48;99795.00;;;16.30
71205;BMP180;58935;54.498;18.544;2023-07-31T06:27:13;99800.00;;;16.30
71205;BMP180;58935;54.498;18.544;2023-07-31T06:29:38;99803.60;;;16.40
71205;BMP180;58935;54.498;18.544;2023-07-31T06:32:04;99809.60;;;16.40
71205;BMP180;58935;54.498;18.544;2023-07-31T06:34:29;99810.80;;;16.50
71205;BMP180;58935;54.498;18.544;2023-07-31T06:36:56;99804.00;;;16.50
71205;BMP180;58935;54.498;18.544;2023-07-31T06:39:21;99804.60;;;16.60
71205;BMP180;58935;54.498;18.544;2023-07-31T06:41:47;99810.60;;;16.60
71205;BMP180;58935;54.498;18.544;2023-07-31T06:44:12;99814.80;;;16.66
71205;BMP180;58935;54.498;18.544;2023-07-31T06:46:38;99811.60;;;16.70
71205;BMP180;58935;54.498;18.544;2023-07-31T06:49:03;99819.20;;;16.74
71205;BMP180;58935;54.498;18.544;2023-07-31T06:51:29;99821.20;;;16.80
71205;BMP180;58935;54.498;18.544;2023-07-31T06:53:57;99826.80;;;16.80
71205;BMP180;58935;54.498;18.544;2023-07-31T06:56:23;99825.40;;;16.90
71205;BMP180;58935;54.498;18.544;2023-07-31T06:58:49;99831.60;;;16.90
71205;BMP180;58935;54.498;18.544;2023-07-31T07:01:14;99828.60;;;17.00
71205;BMP180;58935;54.498;18.544;2023-07-31T07:03:39;99823.60;;;17.10
71205;BMP180;58935;54.498;18.544;2023-07-31T07:06:05;99827.20;;;17.10
71205;BMP180;58935;54.498;18.544;2023-07-31T07:08:30;99832.00;;;17.20
71205;BMP180;58935;54.498;18.544;2023-07-31T07:10:55;99825.20;;;17.30
71205;BMP180;58935;54.498;18.544;2023-07-31T07:13:22;99830.20;;;17.30
71205;BMP180;58935;54.498;18.544;2023-07-31T07:15:49;99827.20;;;17.40
71205;BMP180;58935;54.498;18.544;2023-07-31T07:18:15;99822.40;;;17.48
71205;BMP180;58935;54.498;18.544;2023-07-31T07:20:50;99820.80;;;17.50
71205;BMP180;58935;54.498;18.544;2023-07-31T07:23:16;99814.60;;;17.54
71205;BMP180;58935;54.498;18.544;2023-07-31T07:25:43;99822.20;;;17.60
71205;BMP180;58935;54.498;18.544;2023-07-31T07:28:09;99827.80;;;17.60
71205;BMP180;58935;54.498;18.544;2023-07-31T07:30:35;99834.60;;;17.70
71205;BMP180;58935;54.498;18.544;2023-07-31T07:33:01;99826.40;;;17.80
71205;BMP180;58935;54.498;18.544;2023-07-31T07:35:26;99823.20;;;17.90
71205;BMP180;58935;54.498;18.544;2023-07-31T07:37:51;99823.40;;;17.90
71205;BMP180;58935;54.498;18.544;2023-07-31T07:40:17;99821.00;;;18.00
71205;BMP180;58935;54.498;18.544;2023-07-31T07:42:42;99809.40;;;18.00
71205;BMP180;58935;54.498;18.544;2023-07-31T07:45:08;99817.80;;;18.00
71205;BMP180;58935;54.498;18.544;2023-07-31T07:47:34;99821.00;;;18.00
71205;BMP180;58935;54.498;18.544;2023-07-31T07:49:59;99817.00;;;18.10
71205;BMP180;58935;54.498;18.544;2023-07-31T07:52:25;99816.20;;;18.10
71205;BMP180;58935;54.498;18.544;2023-07-31T07:54:50;99813.40;;;18.20
71205;BMP180;58935;54.498;18.544;2023-07-31T07:57:16;99819.80;;;18.30
71205;BMP180;58935;54.498;18.544;2023-07-31T07:59:42;99812.80;;;18.40
71205;BMP180;58935;54.498;18.544;2023-07-31T08:02:07;99812.00;;;18.50
71205;BMP180;58935;54.498;18.544;2023-07-31T08:04:32;99806.80;;;18.60
71205;BMP180;58935;54.498;18.544;2023-07-31T08:06:58;99813.20;;;18.60
71205;BMP180;58935;54.498;18.544;2023-07-31T08:09:23;99818.80;;;18.70
71205;BMP180;58935;54.498;18.544;2023-07-31T08:11:48;99822.80;;;18.70
71205;BMP180;58935;54.498;18.544;2023-07-31T08:14:14;99820.20;;;18.80
71205;BMP180;58935;54.498;18.544;2023-07-31T08:16:39;99814.40;;;18.80
71205;BMP180;58935;54.498;18.544;2023-07-31T08:19:05;99818.20;;;18.90
71205;BMP180;58935;54.498;18.544;2023-07-31T08:21:31;99822.40;;;18.90
71205;BMP180;58935;54.498;18.544;2023-07-31T08:23:57;99821.00;;;18.98
71205;BMP180;58935;54.498;18.544;2023-07-31T08:26:23;99821.00;;;19.00
71205;BMP180;58935;54.498;18.544;2023-07-31T08:28:48;99806.80;;;19.00
71205;BMP180;58935;54.498;18.544;2023-07-31T08:31:13;99808.00;;;19.00
71205;BMP180;58935;54.498;18.544;2023-07-31T08:33:39;99812.80;;;19.08
71205;BMP180;58935;54.498;18.544;2023-07-31T08:36:06;99811.60;;;19.10
71205;BMP180;58935;54.498;18.544;2023-07-31T08:38:32;99814.80;;;19.20
71205;BMP180;58935;54.498;18.544;2023-07-31T08:40:58;99810.20;;;19.30
71205;BMP180;58935;54.498;18.544;2023-07-31T08:43:27;99814.00;;;19.30
71205;BMP180;58935;54.498;18.544;2023-07-31T08:45:53;99814.00;;;19.40
71205;BMP180;58935;54.498;18.544;2023-07-31T08:48:22;99805.40;;;19.40
71205;BMP180;58935;54.498;18.544;2023-07-31T08:50:48;99809.20;;;19.40
71205;BMP180;58935;54.498;18.544;2023-07-31T08:53:14;99806.60;;;19.50
71205;BMP180;58935;54.498;18.544;2023-07-31T08:55:40;99805.00;;;19.52
71205;BMP180;58935;54.498;18.544;2023-07-31T08:58:05;99807.20;;;19.56
71205;BMP180;58935;54.498;18.544;2023-07-31T09:00:32;99811.00;;;19.60
71205;BMP180;58935;54.498;18.544;2023-07-31T09:03:09;99810.80;;;19.60
71205;BMP180;58935;54.498;18.544;2023-07-31T09:05:45;99813.80;;;19.72
71205;BMP180;58935;54.498;18.544;2023-07-31T09:08:13;99813.20;;;19.90
71205;BMP180;58935;54.498;18.544;2023-07-31T09:10:45;99805.20;;;20.00
71205;BMP180;58935;54.498;18.544;2023-07-31T09:13:13;99813.40;;;20.12
71205;BMP180;58935;54.498;18.544;2023-07-31T09:15:40;99814.80;;;20.20
71205;BMP180;58935;54.498;18.544;2023-07-31T09:18:07;99807.40;;;20.20
71205;BMP180;58935;54.498;18.544;2023-07-31T09:20:33;99807.60;;;20.20
71205;BMP180;58935;54.498;18.544;2023-07-31T09:23:13;99812.40;;;20.24
71205;BMP180;58935;54.498;18.544;2023-07-31T09:25:43;99807.40;;;20.30
71205;BMP180;58935;54.498;18.544;2023-07-31T09:28:10;99801.00;;;20.30
71205;BMP180;58935;54.498;18.544;2023-07-31T09:30:50;99802.00;;;20.30
71205;BMP180;58935;54.498;18.544;2023-07-31T09:33:17;99797.40;;;20.30
71205;BMP180;58935;54.498;18.544;2023-07-31T09:35:43;99790.80;;;20.40
71205;BMP180;58935;54.498;18.544;2023-07-31T09:38:12;99798.00;;;20.50
71205;BMP180;58935;54.498;18.544;2023-07-31T09:40:41;99795.60;;;20.50
71205;BMP180;58935;54.498;18.544;2023-07-31T09:43:10;99798.40;;;20.50
71205;BMP180;58935;54.498;18.544;2023-07-31T09:45:42;99793.60;;;20.52
71205;BMP180;58935;54.498;18.544;2023-07-31T09:48:11;99790.20;;;20.70
71205;BMP180;58935;54.498;18.544;2023-07-31T09:50:39;99788.40;;;20.80
71205;BMP180;58935;54.498;18.544;2023-07-31T09:53:06;99781.20;;;20.90
71205;BMP180;58935;54.498;18.544;2023-07-31T09:55:32;99783.60;;;21.08
71205;BMP180;58935;54.498;18.544;2023-07-31T09:57:58;99785.80;;;21.10
71205;BMP180;58935;54.498;18.544;2023-07-31T10:00:24;99779.60;;;21.20
71205;BMP180;58935;54.498;18.544;2023-07-31T10:02:54;99779.40;;;21.30
71205;BMP180;58935;54.498;18.544;2023-07-31T10:05:21;99776.80;;;21.40
71205;BMP180;58935;54.498;18.544;2023-07-31T10:07:59;99780.80;;;21.50
71205;BMP180;58935;54.498;18.544;2023-07-31T10:10:26;99775.20;;;21.50
71205;BMP180;58935;54.498;18.544;2023-07-31T10:12:54;99782.20;;;21.44
71205;BMP180;58935;54.498;18.544;2023-07-31T10:15:21;99773.80;;;21.50
71205;BMP180;58935;54.498;18.544;2023-07-31T10:17:48;99769.40;;;21.50
71205;BMP180;58935;54.498;18.544;2023-07-31T10:20:16;99770.20;;;21.50
71205;BMP180;58935;54.498;18.544;2023-07-31T10:22:43;99767.80;;;21.60
71205;BMP180;58935;54.498;18.544;2023-07-31T10:25:09;99772.20;;;21.70
71205;BMP180;58935;54.498;18.544;2023-07-31T10:27:38;99766.20;;;21.80
71205;BMP180;58935;54.498;18.544;2023-07-31T10:30:08;99762.60;;;21.90
71205;BMP180;58935;54.498;18.544;2023-07-31T10:32:38;99769.60;;;22.00
71205;BMP180;58935;54.498;18.544;2023-07-31T10:35:06;99756.00;;;22.00
71205;BMP180;58935;54.498;18.544;2023-07-31T10:37:41;99760.40;;;22.00
71205;BMP180;58935;54.498;18.544;2023-07-31T10:40:18;99764.40;;;22.10
71205;BMP180;58935;54.498;18.544;2023-07-31T10:42:54;99763.40;;;22.22
71205;BMP180;58935;54.498;18.544;2023-07-31T10:45:34;99758.80;;;22.40
71205;BMP180;58935;54.498;18.544;2023-07-31T10:48:12;99757.80;;;22.60
71205;BMP180;58935;54.498;18.544;2023-07-31T10:50:47;99757.20;;;22.70
71205;BMP180;58935;54.498;18.544;2023-07-31T10:53:30;99757.00;;;22.80
71205;BMP180;58935;54.498;18.544;2023-07-31T10:56:01;99756.80;;;22.80
71205;BMP180;58935;54.498;18.544;2023-07-31T10:58:26;99749.80;;;22.80
71205;BMP180;58935;54.498;18.544;2023-07-31T11:00:58;99753.00;;;22.90
71205;BMP180;58935;54.498;18.544;2023-07-31T11:03:29;99745.20;;;23.06
71205;BMP180;58935;54.498;18.544;2023-07-31T11:06:07;99748.40;;;23.10
71205;BMP180;58935;54.498;18.544;2023-07-31T11:08:35;99750.00;;;23.10
71205;BMP180;58935;54.498;18.544;2023-07-31T11:11:09;99745.00;;;23.20
71205;BMP180;58935;54.498;18.544;2023-07-31T11:13:45;99744.00;;;23.34
71205;BMP180;58935;54.498;18.544;2023-07-31T11:16:14;99746.00;;;23.40
71205;BMP180;58935;54.498;18.544;2023-07-31T11:18:44;99745.40;;;23.48
71205;BMP180;58935;54.498;18.544;2023-07-31T11:21:16;99740.60;;;23.40
71205;BMP180;58935;54.498;18.544;2023-07-31T11:23:47;99740.00;;;23.40
71205;BMP180;58935;54.498;18.544;2023-07-31T11:26:12;99738.80;;;23.40
71205;BMP180;58935;54.498;18.544;2023-07-31T11:28:38;99737.40;;;23.40
71205;BMP180;58935;54.498;18.544;2023-07-31T11:31:08;99735.40;;;23.54
71205;BMP180;58935;54.498;18.544;2023-07-31T11:33:34;99730.00;;;23.70
71205;BMP180;58935;54.498;18.544;2023-07-31T11:35:59;99744.20;;;23.70
71205;BMP180;58935;54.498;18.544;2023-07-31T11:38:28;99738.60;;;23.70
71205;BMP180;58935;54.498;18.544;2023-07-31T11:40:57;99734.00;;;23.66
71205;BMP180;58935;54.498;18.544;2023-07-31T11:43:23;99733.40;;;23.60
71205;BMP180;58935;54.498;18.544;2023-07-31T11:45:56;99735.60;;;23.70
71205;BMP180;58935;54.498;18.544;2023-07-31T11:48:30;99729.80;;;23.70
71205;BMP180;58935;54.498;18.544;2023-07-31T11:51:01;99741.80;;;23.70
71205;BMP180;58935;54.498;18.544;2023-07-31T11:53:44;99739.80;;;23.80
71205;BMP180;58935;54.498;18.544;2023-07-31T11:56:16;99729.40;;;23.94
71205;BMP180;58935;54.498;18.544;2023-07-31T11:58:45;99731.80;;;24.00
71205;BMP180;58935;54.498;18.544;2023-07-31T12:01:11;99731.60;;;24.12
71205;BMP180;58935;54.498;18.544;2023-07-31T12:03:38;99729.40;;;24.20
71205;BMP180;58935;54.498;18.544;2023-07-31T12:06:03;99724.40;;;24.30
71205;BMP180;58935;54.498;18.544;2023-07-31T12:08:29;99734.60;;;24.20
71205;BMP180;58935;54.498;18.544;2023-07-31T12:11:03;99732.40;;;24.20
71205;BMP180;58935;54.498;18.544;2023-07-31T12:13:31;99728.80;;;24.10
71205;BMP180;58935;54.498;18.544;2023-07-31T12:16:00;99729.20;;;24.00
71205;BMP180;58935;54.498;18.544;2023-07-31T12:18:34;99731.80;;;23.86
71205;BMP180;58935;54.498;18.544;2023-07-31T12:21:02;99726.00;;;23.80
71205;BMP180;58935;54.498;18.544;2023-07-31T12:23:32;99716.00;;;23.72
71205;BMP180;58935;54.498;18.544;2023-07-31T12:26:14;99725.80;;;23.60
71205;BMP180;58935;54.498;18.544;2023-07-31T12:28:45;99724.80;;;23.60
71205;BMP180;58935;54.498;18.544;2023-07-31T12:31:14;99719.80;;;23.60
71205;BMP180;58935;54.498;18.544;2023-07-31T12:33:41;99721.20;;;23.60
71205;BMP180;58935;54.498;18.544;2023-07-31T12:36:15;99725.40;;;23.60
71205;BMP180;58935;54.498;18.544;2023-07-31T12:38:42;99727.20;;;23.50
71205;BMP180;58935;54.498;18.544;2023-07-31T12:41:08;99727.00;;;23.52
71205;BMP180;58935;54.498;18.544;2023-07-31T12:43:39;99719.60;;;23.70
71205;BMP180;58935;54.498;18.544;2023-07-31T12:46:06;99713.60;;;23.90
71205;BMP180;58935;54.498;18.544;2023-07-31T12:48:34;99708.40;;;24.10
71205;BMP180;58935;54.498;18.544;2023-07-31T12:51:00;99717.60;;;24.20
71205;BMP180;58935;54.498;18.544;2023-07-31T12:53:25;99711.20;;;24.20
71205;BMP180;58935;54.498;18.544;2023-07-31T12:55:50;99707.40;;;24.20
71205;BMP180;58935;54.498;18.544;2023-07-31T12:58:16;99703.60;;;24.00
71205;BMP180;58935;54.498;18.544;2023-07-31T13:00:41;99701.80;;;23.80
71205;BMP180;58935;54.498;18.544;2023-07-31T13:03:07;99703.20;;;23.60
71205;BMP180;58935;54.498;18.544;2023-07-31T13:05:33;99694.40;;;23.60
71205;BMP180;58935;54.498;18.544;2023-07-31T13:07:58;99699.80;;;23.60
71205;BMP180;58935;54.498;18.544;2023-07-31T13:10:24;99696.00;;;23.50
71205;BMP180;58935;54.498;18.544;2023-07-31T13:12:51;99685.20;;;23.50
71205;BMP180;58935;54.498;18.544;2023-07-31T13:15:16;99696.60;;;23.50
71205;BMP180;58935;54.498;18.544;2023-07-31T13:17:41;99689.20;;;23.44
71205;BMP180;58935;54.498;18.544;2023-07-31T13:20:07;99678.60;;;23.70
71205;BMP180;58935;54.498;18.544;2023-07-31T13:22:33;99681.80;;;23.88
71205;BMP180;58935;54.498;18.544;2023-07-31T13:24:59;99684.20;;;23.90
71205;BMP180;58935;54.498;18.544;2023-07-31T13:27:24;99684.60;;;23.90
71205;BMP180;58935;54.498;18.544;2023-07-31T13:29:51;99682.80;;;23.80
71205;BMP180;58935;54.498;18.544;2023-07-31T13:32:19;99674.40;;;23.70
71205;BMP180;58935;54.498;18.544;2023-07-31T13:34:45;99668.00;;;23.50
71205;BMP180;58935;54.498;18.544;2023-07-31T13:37:11;99670.00;;;23.42
71205;BMP180;58935;54.498;18.544;2023-07-31T13:39:37;99679.20;;;23.32
71205;BMP180;58935;54.498;18.544;2023-07-31T13:42:03;99672.00;;;23.30
71205;BMP180;58935;54.498;18.544;2023-07-31T13:44:32;99671.80;;;23.30
71205;BMP180;58935;54.498;18.544;2023-07-31T13:46:57;99671.60;;;23.30
71205;BMP180;58935;54.498;18.544;2023-07-31T13:49:22;99662.40;;;23.20
71205;BMP180;58935;54.498;18.544;2023-07-31T13:51:48;99666.80;;;23.10
71205;BMP180;58935;54.498;18.544;2023-07-31T13:54:13;99668.60;;;23.00
71205;BMP180;58935;54.498;18.544;2023-07-31T13:56:40;99661.00;;;23.10
71205;BMP180;58935;54.498;18.544;2023-07-31T13:59:05;99662.20;;;23.22
71205;BMP180;58935;54.498;18.544;2023-07-31T14:01:31;99665.40;;;23.40